sensor_id;sensor_type;location;lat;lon;timestamp;P1;durP1;ratioP1;P2;durP2;ratioP2
25127;SDS011;13107;51.304;6.866;2022-11-13T00:02:32;9.45;;;5.57;;
25127;SDS011;13107;51.304;6.866;2022-11-13T00:06:35;12.07;;;5.55;;
25127;SDS011;13107;51.304;6.866;2022-11-13T00:10:36;10.93;;;5.97;;
25127;SDS011;13107;51.304;6.866;2022-11-13T00:14:38;9.82;;;5.90;;
25127;SDS011;13107;51.304;6.866;2022-11-13T00:18:40;10.43;;;6.18;;
25127;SDS011;13107;51.304;6.866;2022-11-13T00:22:42;11.27;;;6.55;;
25127;SDS011;13107;51.304;6.866;2022-11-13T00:26:43;11.07;;;6.20;;
25127;SDS011;13107;51.304;6.866;2022-11-13T00:30:45;10.15;;;6.80;;
25127;SDS011;13107;51.304;6.866;2022-11-13T00:34:47;10.15;;;7.03;;
25127;SDS011;13107;51.304;6.866;2022-11-13T00:38:49;12.23;;;7.37;;
25127;SDS011;13107;51.304;6.866;2022-11-13T00:42:51;12.73;;;7.12;;
25127;SDS011;13107;51.304;6.866;2022-11-13T00:46:53;10.75;;;7.03;;
25127;SDS011;13107;51.304;6.866;2022-11-13T00:50:54;8.13;;;6.03;;
25127;SDS011;13107;51.304;6.866;2022-11-13T00:54:56;12.20;;;6.82;;
25127;SDS011;13107;51.304;6.866;2022-11-13T00:58:58;9.63;;;6.10;;
25127;SDS011;13107;51.304;6.866;2022-11-13T01:03:00;11.10;;;5.47;;
25127;SDS011;13107;51.304;6.866;2022-11-13T01:07:01;10.07;;;5.57;;
25127;SDS011;13107;51.304;6.866;2022-11-13T01:15:31;11.68;;;5.50;;
25127;SDS011;13107;51.304;6.866;2022-11-13T01:19:33;10.10;;;5.10;;
25127;SDS011;13107;51.304;6.866;2022-11-13T01:23:35;9.15;;;4.72;;
25127;SDS011;13107;51.304;6.866;2022-11-13T01:27:37;6.97;;;4.57;;
25127;SDS011;13107;51.304;6.866;2022-11-13T01:31:39;8.77;;;4.45;;
25127;SDS011;13107;51.304;6.866;2022-11-13T01:35:40;10.02;;;4.30;;
25127;SDS011;13107;51.304;6.866;2022-11-13T01:39:42;7.10;;;3.83;;
25127;SDS011;13107;51.304;6.866;2022-11-13T01:43:44;7.45;;;4.12;;
25127;SDS011;13107;51.304;6.866;2022-11-13T01:47:45;10.13;;;4.45;;
25127;SDS011;13107;51.304;6.866;2022-11-13T01:51:48;10.48;;;4.03;;
25127;SDS011;13107;51.304;6.866;2022-11-13T01:55:53;7.87;;;4.50;;
25127;SDS011;13107;51.304;6.866;2022-11-13T01:59:59;8.90;;;4.53;;
25127;SDS011;13107;51.304;6.866;2022-11-13T02:04:04;6.60;;;3.85;;
25127;SDS011;13107;51.304;6.866;2022-11-13T02:08:05;8.40;;;3.83;;
25127;SDS011;13107;51.304;6.866;2022-11-13T02:12:09;6.50;;;4.10;;
25127;SDS011;13107;51.304;6.866;2022-11-13T02:16:13;8.07;;;4.80;;
25127;SDS011;13107;51.304;6.866;2022-11-13T02:20:18;8.38;;;4.18;;
25127;SDS011;13107;51.304;6.866;2022-11-13T02:24:44;8.85;;;4.22;;
25127;SDS011;13107;51.304;6.866;2022-11-13T02:28:53;6.60;;;4.95;;
25127;SDS011;13107;51.304;6.866;2022-11-13T02:32:55;7.50;;;4.97;;
25127;SDS011;13107;51.304;6.866;2022-11-13T02:36:58;9.60;;;5.10;;
25127;SDS011;13107;51.304;6.866;2022-11-13T02:41:00;7.12;;;4.78;;
25127;SDS011;13107;51.304;6.866;2022-11-13T02:45:02;11.27;;;5.50;;
25127;SDS011;13107;51.304;6.866;2022-11-13T02:49:05;9.90;;;4.95;;
25127;SDS011;13107;51.304;6.866;2022-11-13T02:53:07;8.60;;;5.03;;
25127;SDS011;13107;51.304;6.866;2022-11-13T02:57:09;8.75;;;4.97;;
25127;SDS011;13107;51.304;6.866;2022-11-13T03:01:11;8.20;;;5.25;;
25127;SDS011;13107;51.304;6.866;2022-11-13T03:05:12;10.82;;;5.15;;
25127;SDS011;13107;51.304;6.866;2022-11-13T03:09:14;9.30;;;5.15;;
25127;SDS011;13107;51.304;6.866;2022-11-13T03:13:16;8.77;;;4.87;;
25127;SDS011;13107;51.304;6.866;2022-11-13T03:17:18;8.70;;;5.10;;
25127;SDS011;13107;51.304;6.866;2022-11-13T03:21:20;9.57;;;5.87;;
25127;SDS011;13107;51.304;6.866;2022-11-13T03:25:22;8.38;;;4.93;;
25127;SDS011;13107;51.304;6.866;2022-11-13T03:29:23;12.18;;;5.35;;
25127;SDS011;13107;51.304;6.866;2022-11-13T03:33:25;7.18;;;4.72;;
25127;SDS011;13107;51.304;6.866;2022-11-13T03:37:27;8.25;;;4.47;;
25127;SDS011;13107;51.304;6.866;2022-11-13T03:41:28;7.57;;;4.37;;
25127;SDS011;13107;51.304;6.866;2022-11-13T03:45:30;8.13;;;5.15;;
25127;SDS011;13107;51.304;6.866;2022-11-13T03:49:32;8.70;;;4.85;;
25127;SDS011;13107;51.304;6.866;2022-11-13T03:53:33;9.68;;;5.15;;
25127;SDS011;13107;51.304;6.866;2022-11-13T03:57:35;8.10;;;5.25;;
25127;SDS011;13107;51.304;6.866;2022-11-13T04:01:36;8.57;;;4.85;;
25127;SDS011;13107;51.304;6.866;2022-11-13T04:05:38;10.02;;;4.47;;
25127;SDS011;13107;51.304;6.866;2022-11-13T04:09:42;9.20;;;5.05;;
25127;SDS011;13107;51.304;6.866;2022-11-13T04:13:44;8.77;;;4.87;;
25127;SDS011;13107;51.304;6.866;2022-11-13T04:17:47;12.02;;;4.93;;
25127;SDS011;13107;51.304;6.866;2022-11-13T04:21:49;9.43;;;5.00;;
25127;SDS011;13107;51.304;6.866;2022-11-13T04:25:50;8.43;;;4.90;;
25127;SDS011;13107;51.304;6.866;2022-11-13T04:29:52;8.18;;;4.30;;
25127;SDS011;13107;51.304;6.866;2022-11-13T04:33:54;8.73;;;4.43;;
25127;SDS011;13107;51.304;6.866;2022-11-13T04:37:55;8.27;;;4.72;;
25127;SDS011;13107;51.304;6.866;2022-11-13T04:41:57;9.93;;;4.72;;
25127;SDS011;13107;51.304;6.866;2022-11-13T04:46:18;7.60;;;4.43;;
25127;SDS011;13107;51.304;6.866;2022-11-13T04:50:19;8.93;;;4.40;;
25127;SDS011;13107;51.304;6.866;2022-11-13T04:54:21;7.45;;;4.25;;
25127;SDS011;13107;51.304;6.866;2022-11-13T04:58:29;6.97;;;4.37;;
25127;SDS011;13107;51.304;6.866;2022-11-13T05:02:31;9.18;;;4.30;;
25127;SDS011;13107;51.304;6.866;2022-11-13T05:06:33;9.07;;;4.07;;
25127;SDS011;13107;51.304;6.866;2022-11-13T05:10:34;7.15;;;3.60;;
25127;SDS011;13107;51.304;6.866;2022-11-13T05:14:37;8.13;;;3.78;;
25127;SDS011;13107;51.304;6.866;2022-11-13T05:18:40;7.47;;;3.58;;
25127;SDS011;13107;51.304;6.866;2022-11-13T05:22:41;6.95;;;3.78;;
25127;SDS011;13107;51.304;6.866;2022-11-13T05:26:43;8.80;;;4.10;;
25127;SDS011;13107;51.304;6.866;2022-11-13T05:30:45;9.95;;;3.25;;
25127;SDS011;13107;51.304;6.866;2022-11-13T05:34:47;5.50;;;3.40;;
25127;SDS011;13107;51.304;6.866;2022-11-13T05:38:48;5.37;;;3.20;;
25127;SDS011;13107;51.304;6.866;2022-11-13T05:42:51;5.40;;;2.90;;
25127;SDS011;13107;51.304;6.866;2022-11-13T05:46:53;5.57;;;3.05;;
25127;SDS011;13107;51.304;6.866;2022-11-13T05:51:09;4.65;;;3.22;;
25127;SDS011;13107;51.304;6.866;2022-11-13T05:55:11;4.82;;;2.92;;
25127;SDS011;13107;51.304;6.866;2022-11-13T05:59:12;6.47;;;3.17;;
25127;SDS011;13107;51.304;6.866;2022-11-13T06:03:14;5.40;;;2.97;;
25127;SDS011;13107;51.304;6.866;2022-11-13T06:07:16;6.68;;;3.87;;
25127;SDS011;13107;51.304;6.866;2022-11-13T06:11:18;7.82;;;4.72;;
25127;SDS011;13107;51.304;6.866;2022-11-13T06:15:21;5.75;;;3.45;;
25127;SDS011;13107;51.304;6.866;2022-11-13T06:19:23;8.18;;;3.65;;
25127;SDS011;13107;51.304;6.866;2022-11-13T06:23:25;5.20;;;2.55;;
25127;SDS011;13107;51.304;6.866;2022-11-13T06:27:27;14.77;;;11.00;;
25127;SDS011;13107;51.304;6.866;2022-11-13T06:31:29;15.98;;;13.00;;
25127;SDS011;13107;51.304;6.866;2022-11-13T06:35:33;11.48;;;9.95;;
25127;SDS011;13107;51.304;6.866;2022-11-13T06:39:34;11.15;;;6.80;;
25127;SDS011;13107;51.304;6.866;2022-11-13T06:43:36;9.00;;;6.20;;
25127;SDS011;13107;51.304;6.866;2022-11-13T06:47:38;8.38;;;5.25;;
25127;SDS011;13107;51.304;6.866;2022-11-13T06:51:40;7.62;;;4.20;;
25127;SDS011;13107;51.304;6.866;2022-11-13T06:55:45;7.25;;;3.55;;
25127;SDS011;13107;51.304;6.866;2022-11-13T06:59:48;4.55;;;2.37;;
25127;SDS011;13107;51.304;6.866;2022-11-13T07:03:50;5.87;;;2.85;;
25127;SDS011;13107;51.304;6.866;2022-11-13T07:07:52;8.30;;;3.05;;
25127;SDS011;13107;51.304;6.866;2022-11-13T07:11:53;11.65;;;5.55;;
25127;SDS011;13107;51.304;6.866;2022-11-13T07:15:59;11.75;;;4.85;;
25127;SDS011;13107;51.304;6.866;2022-11-13T07:20:15;6.78;;;3.60;;
25127;SDS011;13107;51.304;6.866;2022-11-13T07:24:17;6.20;;;2.83;;
25127;SDS011;13107;51.304;6.866;2022-11-13T07:28:19;6.12;;;3.25;;
25127;SDS011;13107;51.304;6.866;2022-11-13T07:32:21;20.48;;;10.80;;
25127;SDS011;13107;51.304;6.866;2022-11-13T07:36:23;8.20;;;3.78;;
25127;SDS011;13107;51.304;6.866;2022-11-13T07:40:24;6.05;;;3.17;;
25127;SDS011;13107;51.304;6.866;2022-11-13T07:44:26;8.00;;;3.20;;
25127;SDS011;13107;51.304;6.866;2022-11-13T07:48:48;10.52;;;4.30;;
25127;SDS011;13107;51.304;6.866;2022-11-13T07:52:53;12.77;;;5.12;;
25127;SDS011;13107;51.304;6.866;2022-11-13T07:56:56;15.70;;;5.70;;
25127;SDS011;13107;51.304;6.866;2022-11-13T08:01:02;12.05;;;4.72;;
25127;SDS011;13107;51.304;6.866;2022-11-13T08:05:04;5.00;;;3.20;;
25127;SDS011;13107;51.304;6.866;2022-11-13T08:09:06;10.30;;;4.50;;
25127;SDS011;13107;51.304;6.866;2022-11-13T08:13:09;9.65;;;4.05;;
25127;SDS011;13107;51.304;6.866;2022-11-13T08:17:11;6.22;;;3.47;;
25127;SDS011;13107;51.304;6.866;2022-11-13T08:21:12;5.55;;;2.62;;
25127;SDS011;13107;51.304;6.866;2022-11-13T08:25:15;4.00;;;2.28;;
25127;SDS011;13107;51.304;6.866;2022-11-13T08:29:17;5.30;;;2.70;;
25127;SDS011;13107;51.304;6.866;2022-11-13T08:33:19;7.10;;;3.15;;
25127;SDS011;13107;51.304;6.866;2022-11-13T08:37:21;8.25;;;2.70;;
25127;SDS011;13107;51.304;6.866;2022-11-13T08:41:22;7.47;;;4.70;;
25127;SDS011;13107;51.304;6.866;2022-11-13T08:45:24;9.15;;;4.07;;
25127;SDS011;13107;51.304;6.866;2022-11-13T08:49:26;6.22;;;3.55;;
25127;SDS011;13107;51.304;6.866;2022-11-13T08:53:28;7.53;;;3.47;;
25127;SDS011;13107;51.304;6.866;2022-11-13T08:57:30;5.97;;;3.40;;
25127;SDS011;13107;51.304;6.866;2022-11-13T09:01:31;7.12;;;3.70;;
25127;SDS011;13107;51.304;6.866;2022-11-13T09:05:33;8.23;;;4.28;;
25127;SDS011;13107;51.304;6.866;2022-11-13T09:09:35;7.72;;;4.03;;
25127;SDS011;13107;51.304;6.866;2022-11-13T09:13:37;15.65;;;10.07;;
25127;SDS011;13107;51.304;6.866;2022-11-13T09:17:45;12.43;;;8.15;;
25127;SDS011;13107;51.304;6.866;2022-11-13T09:21:47;6.68;;;5.00;;
25127;SDS011;13107;51.304;6.866;2022-11-13T09:25:49;9.98;;;4.50;;
25127;SDS011;13107;51.304;6.866;2022-11-13T09:29:50;5.22;;;3.92;;
25127;SDS011;13107;51.304;6.866;2022-11-13T09:33:56;6.47;;;3.47;;
25127;SDS011;13107;51.304;6.866;2022-11-13T09:37:57;6.62;;;3.55;;
25127;SDS011;13107;51.304;6.866;2022-11-13T09:42:19;5.30;;;3.15;;
25127;SDS011;13107;51.304;6.866;2022-11-13T09:50:37;5.57;;;2.83;;
25127;SDS011;13107;51.304;6.866;2022-11-13T09:54:40;3.97;;;2.25;;
25127;SDS011;13107;51.304;6.866;2022-11-13T10:11:58;6.12;;;3.20;;
25127;SDS011;13107;51.304;6.866;2022-11-13T10:16:15;7.68;;;3.47;;
25127;SDS011;13107;51.304;6.866;2022-11-13T10:20:42;5.97;;;3.10;;
25127;SDS011;13107;51.304;6.866;2022-11-13T10:24:49;5.47;;;2.78;;
25127;SDS011;13107;51.304;6.866;2022-11-13T10:28:59;9.00;;;3.40;;
25127;SDS011;13107;51.304;6.866;2022-11-13T10:33:06;3.75;;;2.10;;
25127;SDS011;13107;51.304;6.866;2022-11-13T10:41:49;4.15;;;2.15;;
25127;SDS011;13107;51.304;6.866;2022-11-13T10:45:54;2.92;;;1.60;;
25127;SDS011;13107;51.304;6.866;2022-11-13T10:50:10;3.55;;;2.00;;
25127;SDS011;13107;51.304;6.866;2022-11-13T10:54:24;2.78;;;1.60;;
25127;SDS011;13107;51.304;6.866;2022-11-13T10:58:34;2.28;;;1.00;;
25127;SDS011;13107;51.304;6.866;2022-11-13T11:02:36;2.58;;;1.42;;
25127;SDS011;13107;51.304;6.866;2022-11-13T11:06:39;3.70;;;2.03;;
25127;SDS011;13107;51.304;6.866;2022-11-13T11:11:06;2.22;;;1.20;;
25127;SDS011;13107;51.304;6.866;2022-11-13T11:19:46;2.28;;;1.15;;
25127;SDS011;13107;51.304;6.866;2022-11-13T11:32:47;4.62;;;1.27;;
25127;SDS011;13107;51.304;6.866;2022-11-13T11:37:11;3.70;;;1.20;;
25127;SDS011;13107;51.304;6.866;2022-11-13T11:41:16;1.90;;;0.98;;
25127;SDS011;13107;51.304;6.866;2022-11-13T11:45:31;4.57;;;2.20;;
25127;SDS011;13107;51.304;6.866;2022-11-13T11:49:39;3.53;;;1.67;;
25127;SDS011;13107;51.304;6.866;2022-11-13T12:07:56;3.65;;;1.65;;
25127;SDS011;13107;51.304;6.866;2022-11-13T12:25:31;2.78;;;1.35;;
25127;SDS011;13107;51.304;6.866;2022-11-13T12:33:51;2.03;;;1.37;;
25127;SDS011;13107;51.304;6.866;2022-11-13T12:42:19;2.97;;;1.70;;
25127;SDS011;13107;51.304;6.866;2022-11-13T12:46:33;8.55;;;4.03;;
25127;SDS011;13107;51.304;6.866;2022-11-13T12:50:36;3.47;;;1.98;;
25127;SDS011;13107;51.304;6.866;2022-11-13T12:54:38;2.85;;;1.65;;
25127;SDS011;13107;51.304;6.866;2022-11-13T12:58:39;3.50;;;1.40;;
25127;SDS011;13107;51.304;6.866;2022-11-13T13:11:47;3.10;;;1.58;;
25127;SDS011;13107;51.304;6.866;2022-11-13T13:15:55;12.15;;;7.35;;
25127;SDS011;13107;51.304;6.866;2022-11-13T13:20:00;2.78;;;1.77;;
25127;SDS011;13107;51.304;6.866;2022-11-13T13:28:31;17.87;;;11.50;;
25127;SDS011;13107;51.304;6.866;2022-11-13T13:36:45;5.72;;;2.50;;
25127;SDS011;13107;51.304;6.866;2022-11-13T13:45:21;4.28;;;2.65;;
25127;SDS011;13107;51.304;6.866;2022-11-13T13:49:30;4.90;;;2.90;;
25127;SDS011;13107;51.304;6.866;2022-11-13T13:53:33;8.23;;;3.33;;
25127;SDS011;13107;51.304;6.866;2022-11-13T13:57:39;6.37;;;4.75;;
25127;SDS011;13107;51.304;6.866;2022-11-13T14:01:51;6.15;;;4.20;;
25127;SDS011;13107;51.304;6.866;2022-11-13T14:06:45;5.50;;;4.20;;
25127;SDS011;13107;51.304;6.866;2022-11-13T14:10:25;6.55;;;3.97;;
25127;SDS011;13107;51.304;6.866;2022-11-13T14:14:28;7.12;;;3.90;;
25127;SDS011;13107;51.304;6.866;2022-11-13T14:18:31;7.03;;;3.65;;
25127;SDS011;13107;51.304;6.866;2022-11-13T14:22:33;8.73;;;3.90;;
25127;SDS011;13107;51.304;6.866;2022-11-13T14:26:35;6.20;;;3.95;;
25127;SDS011;13107;51.304;6.866;2022-11-13T14:30:37;5.47;;;3.67;;
25127;SDS011;13107;51.304;6.866;2022-11-13T14:34:42;5.90;;;3.70;;
25127;SDS011;13107;51.304;6.866;2022-11-13T14:38:46;5.23;;;3.37;;
25127;SDS011;13107;51.304;6.866;2022-11-13T14:42:54;6.78;;;4.18;;
25127;SDS011;13107;51.304;6.866;2022-11-13T14:47:03;7.12;;;4.20;;
25127;SDS011;13107;51.304;6.866;2022-11-13T14:51:06;5.03;;;3.20;;
25127;SDS011;13107;51.304;6.866;2022-11-13T14:55:28;5.62;;;3.40;;
25127;SDS011;13107;51.304;6.866;2022-11-13T14:59:31;3.90;;;3.03;;
25127;SDS011;13107;51.304;6.866;2022-11-13T15:03:33;6.00;;;3.80;;
25127;SDS011;13107;51.304;6.866;2022-11-13T15:07:37;4.90;;;3.30;;
25127;SDS011;13107;51.304;6.866;2022-11-13T15:11:41;9.40;;;3.20;;
25127;SDS011;13107;51.304;6.866;2022-11-13T15:15:43;7.32;;;3.85;;
25127;SDS011;13107;51.304;6.866;2022-11-13T15:19:45;6.18;;;4.03;;
25127;SDS011;13107;51.304;6.866;2022-11-13T15:23:50;6.82;;;5.78;;
25127;SDS011;13107;51.304;6.866;2022-11-13T15:27:52;8.77;;;6.25;;
25127;SDS011;13107;51.304;6.866;2022-11-13T15:31:53;7.82;;;5.55;;
25127;SDS011;13107;51.304;6.866;2022-11-13T15:35:55;6.45;;;5.20;;
25127;SDS011;13107;51.304;6.866;2022-11-13T15:39:57;8.57;;;5.20;;
25127;SDS011;13107;51.304;6.866;2022-11-13T15:43:59;11.90;;;5.97;;
25127;SDS011;13107;51.304;6.866;2022-11-13T15:48:02;13.68;;;5.60;;
25127;SDS011;13107;51.304;6.866;2022-11-13T15:52:04;8.38;;;4.57;;
25127;SDS011;13107;51.304;6.866;2022-11-13T15:56:06;15.32;;;5.05;;
25127;SDS011;13107;51.304;6.866;2022-11-13T16:00:11;6.43;;;4.40;;
25127;SDS011;13107;51.304;6.866;2022-11-13T16:04:14;6.90;;;4.60;;
25127;SDS011;13107;51.304;6.866;2022-11-13T16:08:16;7.07;;;4.07;;
25127;SDS011;13107;51.304;6.866;2022-11-13T16:12:18;8.00;;;4.25;;
25127;SDS011;13107;51.304;6.866;2022-11-13T16:16:21;14.27;;;4.15;;
25127;SDS011;13107;51.304;6.866;2022-11-13T16:20:24;8.25;;;4.37;;
25127;SDS011;13107;51.304;6.866;2022-11-13T16:24:25;8.98;;;4.37;;
25127;SDS011;13107;51.304;6.866;2022-11-13T16:28:27;8.57;;;4.60;;
25127;SDS011;13107;51.304;6.866;2022-11-13T16:32:34;7.93;;;4.10;;
25127;SDS011;13107;51.304;6.866;2022-11-13T16:36:36;8.10;;;3.95;;
25127;SDS011;13107;51.304;6.866;2022-11-13T16:40:38;7.75;;;4.30;;
25127;SDS011;13107;51.304;6.866;2022-11-13T16:44:41;10.38;;;4.57;;
25127;SDS011;13107;51.304;6.866;2022-11-13T16:48:43;7.75;;;4.18;;
25127;SDS011;13107;51.304;6.866;2022-11-13T16:52:45;7.70;;;4.43;;
25127;SDS011;13107;51.304;6.866;2022-11-13T16:56:47;6.05;;;3.62;;
25127;SDS011;13107;51.304;6.866;2022-11-13T17:00:49;5.72;;;3.20;;
25127;SDS011;13107;51.304;6.866;2022-11-13T17:04:50;5.00;;;2.87;;
25127;SDS011;13107;51.304;6.866;2022-11-13T17:08:56;3.60;;;2.47;;
25127;SDS011;13107;51.304;6.866;2022-11-13T17:12:59;4.25;;;2.90;;
25127;SDS011;13107;51.304;6.866;2022-11-13T17:17:01;5.28;;;3.00;;
25127;SDS011;13107;51.304;6.866;2022-11-13T17:21:09;7.70;;;2.95;;
25127;SDS011;13107;51.304;6.866;2022-11-13T17:25:11;5.07;;;2.87;;
25127;SDS011;13107;51.304;6.866;2022-11-13T17:29:13;6.03;;;3.00;;
25127;SDS011;13107;51.304;6.866;2022-11-13T17:33:15;5.87;;;2.72;;
25127;SDS011;13107;51.304;6.866;2022-11-13T17:37:16;4.10;;;2.65;;
25127;SDS011;13107;51.304;6.866;2022-11-13T17:41:24;4.10;;;2.22;;
25127;SDS011;13107;51.304;6.866;2022-11-13T17:45:26;5.03;;;2.97;;
25127;SDS011;13107;51.304;6.866;2022-11-13T17:49:27;5.35;;;2.53;;
25127;SDS011;13107;51.304;6.866;2022-11-13T17:53:29;4.82;;;2.40;;
25127;SDS011;13107;51.304;6.866;2022-11-13T17:57:32;4.47;;;2.70;;
25127;SDS011;13107;51.304;6.866;2022-11-13T18:01:34;3.83;;;2.22;;
25127;SDS011;13107;51.304;6.866;2022-11-13T18:05:35;3.50;;;2.20;;
25127;SDS011;13107;51.304;6.866;2022-11-13T18:09:41;3.40;;;2.67;;
25127;SDS011;13107;51.304;6.866;2022-11-13T18:13:42;5.32;;;2.37;;
25127;SDS011;13107;51.304;6.866;2022-11-13T18:17:45;6.80;;;2.87;;
25127;SDS011;13107;51.304;6.866;2022-11-13T18:21:47;9.15;;;6.53;;
25127;SDS011;13107;51.304;6.866;2022-11-13T18:25:48;9.85;;;5.70;;
25127;SDS011;13107;51.304;6.866;2022-11-13T18:29:50;8.88;;;5.78;;
25127;SDS011;13107;51.304;6.866;2022-11-13T18:33:52;13.77;;;7.65;;
25127;SDS011;13107;51.304;6.866;2022-11-13T18:37:54;13.60;;;7.97;;
25127;SDS011;13107;51.304;6.866;2022-11-13T18:41:56;14.85;;;9.43;;
25127;SDS011;13107;51.304;6.866;2022-11-13T18:46:01;11.40;;;7.45;;
25127;SDS011;13107;51.304;6.866;2022-11-13T18:50:07;11.82;;;8.27;;
25127;SDS011;13107;51.304;6.866;2022-11-13T18:54:09;8.55;;;5.80;;
25127;SDS011;13107;51.304;6.866;2022-11-13T18:58:12;6.70;;;4.62;;
25127;SDS011;13107;51.304;6.866;2022-11-13T19:02:14;7.75;;;5.00;;
25127;SDS011;13107;51.304;6.866;2022-11-13T19:06:17;11.48;;;6.28;;
25127;SDS011;13107;51.304;6.866;2022-11-13T19:10:20;5.37;;;3.70;;
25127;SDS011;13107;51.304;6.866;2022-11-13T19:14:22;8.30;;;3.75;;
25127;SDS011;13107;51.304;6.866;2022-11-13T19:18:23;12.30;;;4.97;;
25127;SDS011;13107;51.304;6.866;2022-11-13T19:22:25;9.82;;;4.72;;
25127;SDS011;13107;51.304;6.866;2022-11-13T19:26:27;7.55;;;4.85;;
25127;SDS011;13107;51.304;6.866;2022-11-13T19:30:28;11.30;;;5.35;;
25127;SDS011;13107;51.304;6.866;2022-11-13T19:34:30;8.88;;;5.45;;
25127;SDS011;13107;51.304;6.866;2022-11-13T19:38:32;11.50;;;5.72;;
25127;SDS011;13107;51.304;6.866;2022-11-13T19:42:34;9.57;;;5.72;;
25127;SDS011;13107;51.304;6.866;2022-11-13T19:46:42;11.57;;;5.47;;
25127;SDS011;13107;51.304;6.866;2022-11-13T19:50:45;12.40;;;6.65;;
25127;SDS011;13107;51.304;6.866;2022-11-13T19:54:47;12.23;;;6.50;;
25127;SDS011;13107;51.304;6.866;2022-11-13T19:58:49;15.50;;;7.68;;
25127;SDS011;13107;51.304;6.866;2022-11-13T20:02:55;13.02;;;7.93;;
25127;SDS011;13107;51.304;6.866;2022-11-13T20:06:56;12.63;;;7.32;;
25127;SDS011;13107;51.304;6.866;2022-11-13T20:11:05;10.95;;;6.60;;
25127;SDS011;13107;51.304;6.866;2022-11-13T20:15:10;10.10;;;6.53;;
25127;SDS011;13107;51.304;6.866;2022-11-13T20:19:11;16.15;;;6.65;;
25127;SDS011;13107;51.304;6.866;2022-11-13T20:23:13;11.10;;;6.60;;
25127;SDS011;13107;51.304;6.866;2022-11-13T20:27:15;8.98;;;6.43;;
25127;SDS011;13107;51.304;6.866;2022-11-13T20:31:18;11.20;;;6.28;;
25127;SDS011;13107;51.304;6.866;2022-11-13T20:35:22;10.23;;;5.53;;
25127;SDS011;13107;51.304;6.866;2022-11-13T20:39:23;7.45;;;5.10;;
25127;SDS011;13107;51.304;6.866;2022-11-13T20:43:25;9.23;;;5.43;;
25127;SDS011;13107;51.304;6.866;2022-11-13T20:47:27;7.28;;;4.78;;
25127;SDS011;13107;51.304;6.866;2022-11-13T20:51:28;6.50;;;4.80;;
25127;SDS011;13107;51.304;6.866;2022-11-13T20:55:30;8.23;;;4.57;;
25127;SDS011;13107;51.304;6.866;2022-11-13T20:59:32;8.52;;;4.50;;
25127;SDS011;13107;51.304;6.866;2022-11-13T21:03:35;9.63;;;5.68;;
25127;SDS011;13107;51.304;6.866;2022-11-13T21:07:41;10.18;;;5.43;;
25127;SDS011;13107;51.304;6.866;2022-11-13T21:11:43;8.07;;;4.40;;
25127;SDS011;13107;51.304;6.866;2022-11-13T21:15:45;7.80;;;4.47;;
25127;SDS011;13107;51.304;6.866;2022-11-13T21:19:46;7.15;;;4.10;;
25127;SDS011;13107;51.304;6.866;2022-11-13T21:23:48;7.70;;;4.03;;
25127;SDS011;13107;51.304;6.866;2022-11-13T21:27:52;6.28;;;4.00;;
25127;SDS011;13107;51.304;6.866;2022-11-13T21:31:54;8.48;;;3.80;;
25127;SDS011;13107;51.304;6.866;2022-11-13T21:36:01;6.10;;;4.03;;
25127;SDS011;13107;51.304;6.866;2022-11-13T21:40:05;6.45;;;3.90;;
25127;SDS011;13107;51.304;6.866;2022-11-13T21:44:07;8.07;;;3.95;;
25127;SDS011;13107;51.304;6.866;2022-11-13T21:48:10;8.52;;;3.80;;
25127;SDS011;13107;51.304;6.866;2022-11-13T21:52:12;10.23;;;3.85;;
25127;SDS011;13107;51.304;6.866;2022-11-13T21:56:14;6.30;;;3.87;;
25127;SDS011;13107;51.304;6.866;2022-11-13T22:00:16;12.63;;;3.97;;
25127;SDS011;13107;51.304;6.866;2022-11-13T22:04:18;7.95;;;3.58;;
25127;SDS011;13107;51.304;6.866;2022-11-13T22:08:19;6.53;;;3.87;;
25127;SDS011;13107;51.304;6.866;2022-11-13T22:12:21;6.55;;;3.85;;
25127;SDS011;13107;51.304;6.866;2022-11-13T22:16:23;5.50;;;3.67;;
25127;SDS011;13107;51.304;6.866;2022-11-13T22:20:26;6.95;;;4.00;;
25127;SDS011;13107;51.304;6.866;2022-11-13T22:24:28;5.53;;;3.72;;
25127;SDS011;13107;51.304;6.866;2022-11-13T22:28:31;7.68;;;3.95;;
25127;SDS011;13107;51.304;6.866;2022-11-13T22:32:34;6.68;;;3.72;;
25127;SDS011;13107;51.304;6.866;2022-11-13T22:36:36;6.10;;;3.78;;
25127;SDS011;13107;51.304;6.866;2022-11-13T22:40:37;7.62;;;4.10;;
25127;SDS011;13107;51.304;6.866;2022-11-13T22:44:39;7.95;;;4.90;;
25127;SDS011;13107;51.304;6.866;2022-11-13T22:48:57;8.82;;;4.65;;
25127;SDS011;13107;51.304;6.866;2022-11-13T22:53:02;8.65;;;4.70;;
25127;SDS011;13107;51.304;6.866;2022-11-13T22:57:03;9.98;;;5.07;;
25127;SDS011;13107;51.304;6.866;2022-11-13T23:01:15;12.07;;;5.68;;
25127;SDS011;13107;51.304;6.866;2022-11-13T23:05:21;9.05;;;5.65;;
25127;SDS011;13107;51.304;6.866;2022-11-13T23:09:23;7.30;;;5.15;;
25127;SDS011;13107;51.304;6.866;2022-11-13T23:13:27;10.23;;;6.28;;
25127;SDS011;13107;51.304;6.866;2022-11-13T23:17:28;11.10;;;5.97;;
25127;SDS011;13107;51.304;6.866;2022-11-13T23:21:30;13.30;;;6.95;;
25127;SDS011;13107;51.304;6.866;2022-11-13T23:25:32;11.12;;;5.78;;
25127;SDS011;13107;51.304;6.866;2022-11-13T23:29:34;9.63;;;6.15;;
25127;SDS011;13107;51.304;6.866;2022-11-13T23:33:36;9.90;;;6.30;;
25127;SDS011;13107;51.304;6.866;2022-11-13T23:37:38;9.88;;;6.40;;
25127;SDS011;13107;51.304;6.866;2022-11-13T23:41:40;9.88;;;6.35;;
25127;SDS011;13107;51.304;6.866;2022-11-13T23:45:42;11.27;;;6.07;;
25127;SDS011;13107;51.304;6.866;2022-11-13T23:49:43;13.65;;;6.55;;
25127;SDS011;13107;51.304;6.866;2022-11-13T23:53:45;9.32;;;5.57;;
25127;SDS011;13107;51.304;6.866;2022-11-13T23:57:47;8.38;;;5.30;;
